• Join FlightAware (Why Join?)
  • Login
  • US Flag 
09:19PM EDT


 

Airport Tracker/Info


-or-


 

Live Flight TrackerFlight Track Log ✈ N1483L ✈ 09-May-2013 ✈ KSQL - KSCK

Flight Track Log - Related Links

Times and Time Zones

All times are in EDT time to prevent confusion due to time zone crossing. See the N1483L flight status page for this flight to view local times or setup timezone preferences in your user account.

Time Position Orientation Groundspeed Altitude Reporting Facility
EDT Latitude Longitude Course Direction KTS MPH feet Rate Location/Type
12:36PM 37.5167 -122.2667 122° Southeast 75 86 700  Level Northern Cal TRACON
12:37PM 37.5167 -122.2500 90° East 105 121 1,100 240 Climbing Northern Cal TRACON
12:38PM 37.5153 -122.2331 96° East 103 119 1,100 360 Level Oakland Center
12:39PM 37.4958 -122.2078 134° Southeast 102 117 1,700 600 Climbing Oakland Center
12:40PM 37.4739 -122.1806 135° Southeast 97 112 2,400 540 Climbing Oakland Center
12:41PM 37.4553 -122.1567 134° Southeast 96 110 2,900 240 Climbing Oakland Center
12:42PM 37.5989 -122.0222 122° Southeast  Level Estimated
12:42PM 37.4661 -122.1108 73° East 122 140 2,900  Level Oakland Center
12:42PM 37.4667 -122.0833 89° East 139 160 3,100 120 Climbing Northern Cal TRACON
12:43PM 37.4833 -122.0500 58° Northeast 142 163 3,100  Level Northern Cal TRACON
12:44PM 37.5000 -122.0000 67° East 134 154 3,100 120 Level Northern Cal TRACON
12:45PM 37.5000 -121.9667 90° East 131 151 3,400 540 Climbing Northern Cal TRACON
12:46PM 37.4833 -121.9333 122° Southeast 95 109 4,200 720 Climbing Northern Cal TRACON
12:47PM 37.4833 -121.9000 90° East 97 112 4,800 420 Climbing Northern Cal TRACON
12:48PM 37.4833 -121.8833 90° East 108 124 5,100 120 Climbing Northern Cal TRACON
12:49PM 37.5167 -121.8500 38° Northeast 132 152 5,100  Level Northern Cal TRACON
12:50PM 37.5500 -121.8167 38° Northeast 134 154 5,100  Level Northern Cal TRACON
12:51PM 37.5667 -121.7833 58° Northeast 136 157 5,100  Level Northern Cal TRACON
12:52PM 37.5833 -121.7333 67° East 134 154 5,100  Level Northern Cal TRACON
12:53PM 37.6000 -121.7000 58° Northeast 139 160 5,100 -60 Level Northern Cal TRACON
12:54PM 37.6167 -121.6667 58° Northeast 138 159 5,000 -60 Descending Northern Cal TRACON
12:55PM 37.6333 -121.6167 67° East 140 161 5,000  Level Northern Cal TRACON
12:56PM 37.6500 -121.5667 67° East 139 160 5,000  Level Northern Cal TRACON
12:57PM 37.6667 -121.5333 58° Northeast 137 158 5,000  Level Northern Cal TRACON
12:58PM 37.6833 -121.5000 58° Northeast 140 161 5,000  Level Northern Cal TRACON
12:59PM 37.7167 -121.4500 50° Northeast 139 160 5,000  Level Northern Cal TRACON
01:00PM 37.7333 -121.4167 58° Northeast 139 160 5,000  Level Northern Cal TRACON
01:01PM 37.7500 -121.3667 67° East 140 161 5,000  Level Northern Cal TRACON
01:02PM 37.7667 -121.3167 67° East 139 160 5,000  Level Northern Cal TRACON
01:03PM 37.7833 -121.2833 58° Northeast 140 161 5,000  Level Northern Cal TRACON
01:04PM 37.8000 -121.2333 67° East 140 161 5,000 -360 Level Northern Cal TRACON
01:05PM 37.7833 -121.2000 122° Southeast 152 175 4,300 -840 Descending Northern Cal TRACON
01:06PM 37.7667 -121.1500 113° Southeast 146 168 3,500 -780 Descending Northern Cal TRACON
01:07PM 37.7667 -121.1167 90° East 126 145 2,800 -660 Descending Northern Cal TRACON
01:08PM 37.8000 -121.0833 38° Northeast 116 133 2,200 -420 Descending Northern Cal TRACON
01:09PM 37.8167 -121.0500 58° Northeast 113 130 2,000 -120 Descending Northern Cal TRACON
01:10PM 37.8333 -121.0333 38° Northeast 114 131 2,000  Level Northern Cal TRACON
01:11PM 37.8333 -121.0000 90° East 126 145 2,000  Level Northern Cal TRACON
01:12PM 37.8167 -121.0167 218° Southwest 110 127 2,000  Level Northern Cal TRACON
01:13PM 37.7833 -121.0500 218° Southwest 114 131 2,000  Level Northern Cal TRACON
01:14PM 37.8000 -121.0833 302° West 107 123 2,000  Level Northern Cal TRACON
01:15PM 37.8167 -121.1167 302° West 103 119 2,000 -180 Level Northern Cal TRACON
01:16PM 37.8333 -121.1333 322° Northwest 106 122 1,700 -480 Descending Northern Cal TRACON
01:17PM 37.8500 -121.1667 302° West 92 106 1,100 -540 Descending Northern Cal TRACON
01:18PM 37.8667 -121.1833 322° Northwest 77 89 700 -420 Descending Northern Cal TRACON